sensor_id;sensor_type;location;lat;lon;timestamp;temperature;humidity
22986;DHT22;11659;51.092;7.080;2022-10-22T00:01:18;13.30;99.90
22986;DHT22;11659;51.092;7.080;2022-10-22T00:03:45;13.30;99.90
22986;DHT22;11659;51.092;7.080;2022-10-22T00:06:11;13.30;99.90
22986;DHT22;11659;51.092;7.080;2022-10-22T00:08:37;13.30;99.90
22986;DHT22;11659;51.092;7.080;2022-10-22T00:11:10;13.30;99.90
22986;DHT22;11659;51.092;7.080;2022-10-22T00:13:37;13.30;99.90
22986;DHT22;11659;51.092;7.080;2022-10-22T00:16:04;13.30;99.90
22986;DHT22;11659;51.092;7.080;2022-10-22T00:18:30;13.30;99.90
22986;DHT22;11659;51.092;7.080;2022-10-22T00:20:56;13.30;99.90
22986;DHT22;11659;51.092;7.080;2022-10-22T00:23:22;13.20;99.90
22986;DHT22;11659;51.092;7.080;2022-10-22T00:25:49;13.30;99.90
22986;DHT22;11659;51.092;7.080;2022-10-22T00:28:14;13.30;99.90
22986;DHT22;11659;51.092;7.080;2022-10-22T00:30:40;13.30;99.90
22986;DHT22;11659;51.092;7.080;2022-10-22T00:33:08;13.30;99.90
22986;DHT22;11659;51.092;7.080;2022-10-22T00:35:33;13.30;99.90
22986;DHT22;11659;51.092;7.080;2022-10-22T00:38:01;13.30;99.90
22986;DHT22;11659;51.092;7.080;2022-10-22T00:40:27;13.40;99.90
22986;DHT22;11659;51.092;7.080;2022-10-22T00:42:53;13.30;99.90
22986;DHT22;11659;51.092;7.080;2022-10-22T00:45:22;13.30;99.90
22986;DHT22;11659;51.092;7.080;2022-10-22T00:47:54;13.40;99.90
22986;DHT22;11659;51.092;7.080;2022-10-22T00:50:27;13.30;99.90
22986;DHT22;11659;51.092;7.080;2022-10-22T00:52:54;13.40;99.90
22986;DHT22;11659;51.092;7.080;2022-10-22T00:55:21;13.40;99.90
22986;DHT22;11659;51.092;7.080;2022-10-22T00:57:48;13.40;99.90
22986;DHT22;11659;51.092;7.080;2022-10-22T01:00:15;13.40;99.90
22986;DHT22;11659;51.092;7.080;2022-10-22T01:02:42;13.40;99.90
22986;DHT22;11659;51.092;7.080;2022-10-22T01:05:08;13.40;99.90
22986;DHT22;11659;51.092;7.080;2022-10-22T01:07:40;13.40;99.90
22986;DHT22;11659;51.092;7.080;2022-10-22T01:10:14;13.40;99.90
22986;DHT22;11659;51.092;7.080;2022-10-22T01:12:47;13.40;99.90
22986;DHT22;11659;51.092;7.080;2022-10-22T01:15:21;13.40;99.90
22986;DHT22;11659;51.092;7.080;2022-10-22T01:17:53;13.40;99.90
22986;DHT22;11659;51.092;7.080;2022-10-22T01:20:45;13.40;99.90
22986;DHT22;11659;51.092;7.080;2022-10-22T01:23:24;13.40;99.90
22986;DHT22;11659;51.092;7.080;2022-10-22T01:25:59;13.60;99.90
22986;DHT22;11659;51.092;7.080;2022-10-22T01:28:55;13.40;99.90
22986;DHT22;11659;51.092;7.080;2022-10-22T01:31:24;13.40;99.90
22986;DHT22;11659;51.092;7.080;2022-10-22T01:33:53;13.40;99.90
22986;DHT22;11659;51.092;7.080;2022-10-22T01:36:21;13.40;99.90
22986;DHT22;11659;51.092;7.080;2022-10-22T01:38:49;13.40;99.90
22986;DHT22;11659;51.092;7.080;2022-10-22T01:41:15;13.40;99.90
22986;DHT22;11659;51.092;7.080;2022-10-22T01:43:41;13.40;99.90
22986;DHT22;11659;51.092;7.080;2022-10-22T01:46:11;13.50;99.90
22986;DHT22;11659;51.092;7.080;2022-10-22T01:48:46;13.40;99.90
22986;DHT22;11659;51.092;7.080;2022-10-22T01:51:29;13.40;99.90
22986;DHT22;11659;51.092;7.080;2022-10-22T01:54:00;13.40;99.90
22986;DHT22;11659;51.092;7.080;2022-10-22T01:56:40;13.50;99.90
22986;DHT22;11659;51.092;7.080;2022-10-22T01:59:18;13.50;99.90
22986;DHT22;11659;51.092;7.080;2022-10-22T02:01:53;13.40;99.90
22986;DHT22;11659;51.092;7.080;2022-10-22T02:04:24;13.40;99.90
22986;DHT22;11659;51.092;7.080;2022-10-22T02:06:55;13.40;99.90
22986;DHT22;11659;51.092;7.080;2022-10-22T02:09:24;13.30;99.90
22986;DHT22;11659;51.092;7.080;2022-10-22T02:11:52;13.40;99.90
22986;DHT22;11659;51.092;7.080;2022-10-22T02:14:19;13.40;99.90
22986;DHT22;11659;51.092;7.080;2022-10-22T02:16:49;13.40;99.90
22986;DHT22;11659;51.092;7.080;2022-10-22T02:19:21;13.40;99.90
22986;DHT22;11659;51.092;7.080;2022-10-22T02:21:49;13.40;99.90
22986;DHT22;11659;51.092;7.080;2022-10-22T02:24:15;13.40;99.90
22986;DHT22;11659;51.092;7.080;2022-10-22T02:26:45;13.30;99.90
22986;DHT22;11659;51.092;7.080;2022-10-22T02:29:16;13.30;99.90
22986;DHT22;11659;51.092;7.080;2022-10-22T02:31:44;13.50;99.90
22986;DHT22;11659;51.092;7.080;2022-10-22T02:34:16;13.50;99.90
22986;DHT22;11659;51.092;7.080;2022-10-22T02:36:45;13.50;99.90
22986;DHT22;11659;51.092;7.080;2022-10-22T02:39:12;13.60;99.90
22986;DHT22;11659;51.092;7.080;2022-10-22T02:41:39;13.70;99.90
22986;DHT22;11659;51.092;7.080;2022-10-22T02:44:08;13.70;99.90
22986;DHT22;11659;51.092;7.080;2022-10-22T02:46:34;14.70;99.90
22986;DHT22;11659;51.092;7.080;2022-10-22T02:49:00;13.80;99.90
22986;DHT22;11659;51.092;7.080;2022-10-22T02:51:28;13.90;99.90
22986;DHT22;11659;51.092;7.080;2022-10-22T02:53:54;13.90;99.90
22986;DHT22;11659;51.092;7.080;2022-10-22T02:56:20;13.90;99.90
22986;DHT22;11659;51.092;7.080;2022-10-22T02:58:46;13.90;99.90
22986;DHT22;11659;51.092;7.080;2022-10-22T03:01:12;14.00;99.90
22986;DHT22;11659;51.092;7.080;2022-10-22T03:03:43;14.10;99.90
22986;DHT22;11659;51.092;7.080;2022-10-22T03:06:09;14.10;99.90
22986;DHT22;11659;51.092;7.080;2022-10-22T03:08:36;14.10;99.90
22986;DHT22;11659;51.092;7.080;2022-10-22T03:11:02;14.10;99.90
22986;DHT22;11659;51.092;7.080;2022-10-22T03:13:28;14.10;99.90
22986;DHT22;11659;51.092;7.080;2022-10-22T03:15:54;14.10;99.90
22986;DHT22;11659;51.092;7.080;2022-10-22T03:18:19;14.10;99.90
22986;DHT22;11659;51.092;7.080;2022-10-22T03:20:45;14.10;99.90
22986;DHT22;11659;51.092;7.080;2022-10-22T03:23:14;14.00;99.90
22986;DHT22;11659;51.092;7.080;2022-10-22T03:25:43;14.10;99.90
22986;DHT22;11659;51.092;7.080;2022-10-22T03:28:12;14.10;99.90
22986;DHT22;11659;51.092;7.080;2022-10-22T03:30:39;14.10;99.90
22986;DHT22;11659;51.092;7.080;2022-10-22T03:33:05;14.10;99.90
22986;DHT22;11659;51.092;7.080;2022-10-22T03:35:32;14.10;99.90
22986;DHT22;11659;51.092;7.080;2022-10-22T03:38:01;14.10;99.90
22986;DHT22;11659;51.092;7.080;2022-10-22T03:40:27;14.10;99.90
22986;DHT22;11659;51.092;7.080;2022-10-22T03:42:54;14.20;99.90
22986;DHT22;11659;51.092;7.080;2022-10-22T03:45:21;14.10;99.90
22986;DHT22;11659;51.092;7.080;2022-10-22T03:47:47;14.10;99.90
22986;DHT22;11659;51.092;7.080;2022-10-22T03:50:13;14.00;99.90
22986;DHT22;11659;51.092;7.080;2022-10-22T03:52:39;14.00;99.90
22986;DHT22;11659;51.092;7.080;2022-10-22T03:55:06;13.90;99.90
22986;DHT22;11659;51.092;7.080;2022-10-22T03:57:32;13.90;99.90
22986;DHT22;11659;51.092;7.080;2022-10-22T04:00:00;13.70;99.90
22986;DHT22;11659;51.092;7.080;2022-10-22T04:02:26;13.70;99.90
22986;DHT22;11659;51.092;7.080;2022-10-22T04:04:53;13.60;99.90
22986;DHT22;11659;51.092;7.080;2022-10-22T04:07:19;13.50;99.90
22986;DHT22;11659;51.092;7.080;2022-10-22T04:09:45;13.60;99.90
22986;DHT22;11659;51.092;7.080;2022-10-22T04:12:10;13.40;99.90
22986;DHT22;11659;51.092;7.080;2022-10-22T04:14:36;13.40;99.90
22986;DHT22;11659;51.092;7.080;2022-10-22T04:17:04;13.30;99.90
22986;DHT22;11659;51.092;7.080;2022-10-22T04:19:30;13.30;99.90
22986;DHT22;11659;51.092;7.080;2022-10-22T04:21:57;13.20;99.90
22986;DHT22;11659;51.092;7.080;2022-10-22T04:24:23;13.20;99.90
22986;DHT22;11659;51.092;7.080;2022-10-22T04:26:49;13.20;99.90
22986;DHT22;11659;51.092;7.080;2022-10-22T04:29:15;13.20;99.90
22986;DHT22;11659;51.092;7.080;2022-10-22T04:31:41;13.20;99.90
22986;DHT22;11659;51.092;7.080;2022-10-22T04:34:08;13.20;99.90
22986;DHT22;11659;51.092;7.080;2022-10-22T04:36:34;13.10;99.90
22986;DHT22;11659;51.092;7.080;2022-10-22T04:39:01;13.20;99.90
22986;DHT22;11659;51.092;7.080;2022-10-22T04:41:29;13.20;99.90
22986;DHT22;11659;51.092;7.080;2022-10-22T04:43:56;13.30;99.90
22986;DHT22;11659;51.092;7.080;2022-10-22T04:46:51;12.10;99.90
22986;DHT22;11659;51.092;7.080;2022-10-22T04:49:18;13.30;99.90
22986;DHT22;11659;51.092;7.080;2022-10-22T04:51:44;13.30;99.90
22986;DHT22;11659;51.092;7.080;2022-10-22T04:54:11;13.30;99.90
22986;DHT22;11659;51.092;7.080;2022-10-22T04:56:36;13.30;99.90
22986;DHT22;11659;51.092;7.080;2022-10-22T04:59:04;13.20;99.90
22986;DHT22;11659;51.092;7.080;2022-10-22T05:01:32;13.20;99.90
22986;DHT22;11659;51.092;7.080;2022-10-22T05:04:00;13.10;99.90
22986;DHT22;11659;51.092;7.080;2022-10-22T05:06:29;13.10;99.90
22986;DHT22;11659;51.092;7.080;2022-10-22T05:08:57;14.20;99.90
22986;DHT22;11659;51.092;7.080;2022-10-22T05:11:25;13.00;99.90
22986;DHT22;11659;51.092;7.080;2022-10-22T05:13:54;13.00;99.90
22986;DHT22;11659;51.092;7.080;2022-10-22T05:16:20;13.00;99.90
22986;DHT22;11659;51.092;7.080;2022-10-22T05:18:46;13.10;99.90
22986;DHT22;11659;51.092;7.080;2022-10-22T05:21:13;12.80;99.90
22986;DHT22;11659;51.092;7.080;2022-10-22T05:23:41;12.90;99.90
22986;DHT22;11659;51.092;7.080;2022-10-22T05:26:08;12.90;99.90
22986;DHT22;11659;51.092;7.080;2022-10-22T05:28:35;12.90;99.90
22986;DHT22;11659;51.092;7.080;2022-10-22T05:31:03;12.80;99.90
22986;DHT22;11659;51.092;7.080;2022-10-22T05:33:30;12.80;99.90
22986;DHT22;11659;51.092;7.080;2022-10-22T05:35:57;12.80;99.90
22986;DHT22;11659;51.092;7.080;2022-10-22T05:38:23;12.70;99.90
22986;DHT22;11659;51.092;7.080;2022-10-22T05:41:00;12.60;99.90
22986;DHT22;11659;51.092;7.080;2022-10-22T05:43:26;12.70;99.90
22986;DHT22;11659;51.092;7.080;2022-10-22T05:45:52;12.80;99.90
22986;DHT22;11659;51.092;7.080;2022-10-22T05:48:18;12.90;99.90
22986;DHT22;11659;51.092;7.080;2022-10-22T05:50:44;13.10;99.90
22986;DHT22;11659;51.092;7.080;2022-10-22T05:53:15;13.00;99.90
22986;DHT22;11659;51.092;7.080;2022-10-22T05:55:42;13.30;99.90
22986;DHT22;11659;51.092;7.080;2022-10-22T05:58:13;13.20;99.90
22986;DHT22;11659;51.092;7.080;2022-10-22T06:00:39;13.30;99.90
22986;DHT22;11659;51.092;7.080;2022-10-22T06:03:05;13.30;99.90
22986;DHT22;11659;51.092;7.080;2022-10-22T06:05:35;13.30;99.90
22986;DHT22;11659;51.092;7.080;2022-10-22T06:08:09;13.30;99.90
22986;DHT22;11659;51.092;7.080;2022-10-22T06:10:36;13.40;99.90
22986;DHT22;11659;51.092;7.080;2022-10-22T06:13:04;13.40;99.90
22986;DHT22;11659;51.092;7.080;2022-10-22T06:15:34;13.40;99.90
22986;DHT22;11659;51.092;7.080;2022-10-22T06:18:00;13.50;99.90
22986;DHT22;11659;51.092;7.080;2022-10-22T06:20:26;13.50;99.90
22986;DHT22;11659;51.092;7.080;2022-10-22T06:22:52;13.60;99.90
22986;DHT22;11659;51.092;7.080;2022-10-22T06:25:17;13.60;99.90
22986;DHT22;11659;51.092;7.080;2022-10-22T06:27:48;13.70;99.90
22986;DHT22;11659;51.092;7.080;2022-10-22T06:30:14;13.70;99.90
22986;DHT22;11659;51.092;7.080;2022-10-22T06:32:42;13.80;99.90
22986;DHT22;11659;51.092;7.080;2022-10-22T06:35:08;14.70;99.90
22986;DHT22;11659;51.092;7.080;2022-10-22T06:37:34;13.90;99.90
22986;DHT22;11659;51.092;7.080;2022-10-22T06:40:00;14.00;99.90
22986;DHT22;11659;51.092;7.080;2022-10-22T06:42:26;14.10;99.90
22986;DHT22;11659;51.092;7.080;2022-10-22T06:44:52;14.20;99.90
22986;DHT22;11659;51.092;7.080;2022-10-22T06:47:18;14.30;99.90
22986;DHT22;11659;51.092;7.080;2022-10-22T06:49:45;14.30;99.90
22986;DHT22;11659;51.092;7.080;2022-10-22T06:52:13;14.40;99.90
22986;DHT22;11659;51.092;7.080;2022-10-22T06:54:39;14.40;99.90
22986;DHT22;11659;51.092;7.080;2022-10-22T06:57:05;14.50;99.90
22986;DHT22;11659;51.092;7.080;2022-10-22T06:59:31;14.50;99.90
22986;DHT22;11659;51.092;7.080;2022-10-22T07:01:57;14.50;99.90
22986;DHT22;11659;51.092;7.080;2022-10-22T07:04:22;14.50;99.90
22986;DHT22;11659;51.092;7.080;2022-10-22T07:06:50;14.60;99.90
22986;DHT22;11659;51.092;7.080;2022-10-22T07:09:16;14.60;99.90
22986;DHT22;11659;51.092;7.080;2022-10-22T07:11:43;14.60;99.90
22986;DHT22;11659;51.092;7.080;2022-10-22T07:14:10;14.60;99.90
22986;DHT22;11659;51.092;7.080;2022-10-22T07:16:36;14.50;99.90
22986;DHT22;11659;51.092;7.080;2022-10-22T07:19:03;14.60;99.90
22986;DHT22;11659;51.092;7.080;2022-10-22T07:21:30;14.50;99.90
22986;DHT22;11659;51.092;7.080;2022-10-22T07:23:58;14.50;99.90
22986;DHT22;11659;51.092;7.080;2022-10-22T07:26:24;14.50;99.90
22986;DHT22;11659;51.092;7.080;2022-10-22T07:28:51;14.50;99.90
22986;DHT22;11659;51.092;7.080;2022-10-22T07:31:18;14.50;99.90
22986;DHT22;11659;51.092;7.080;2022-10-22T07:33:44;14.60;99.90
22986;DHT22;11659;51.092;7.080;2022-10-22T07:36:13;14.60;99.90
22986;DHT22;11659;51.092;7.080;2022-10-22T07:38:42;14.70;99.90
22986;DHT22;11659;51.092;7.080;2022-10-22T07:41:10;14.70;99.90
22986;DHT22;11659;51.092;7.080;2022-10-22T07:43:37;14.70;99.90
22986;DHT22;11659;51.092;7.080;2022-10-22T07:46:03;14.80;99.90
22986;DHT22;11659;51.092;7.080;2022-10-22T07:48:29;14.90;99.90
22986;DHT22;11659;51.092;7.080;2022-10-22T07:50:55;15.30;99.90
22986;DHT22;11659;51.092;7.080;2022-10-22T07:53:27;15.00;99.90
22986;DHT22;11659;51.092;7.080;2022-10-22T07:55:53;15.10;99.90
22986;DHT22;11659;51.092;7.080;2022-10-22T07:58:21;15.20;99.90
22986;DHT22;11659;51.092;7.080;2022-10-22T08:00:48;15.00;99.90
22986;DHT22;11659;51.092;7.080;2022-10-22T08:03:15;15.30;99.90
22986;DHT22;11659;51.092;7.080;2022-10-22T08:05:42;15.40;99.90
22986;DHT22;11659;51.092;7.080;2022-10-22T08:08:12;15.40;99.90
22986;DHT22;11659;51.092;7.080;2022-10-22T08:10:38;15.50;99.90
22986;DHT22;11659;51.092;7.080;2022-10-22T08:13:05;15.50;99.90
22986;DHT22;11659;51.092;7.080;2022-10-22T08:15:33;15.60;99.90
22986;DHT22;11659;51.092;7.080;2022-10-22T08:17:59;15.60;99.90
22986;DHT22;11659;51.092;7.080;2022-10-22T08:20:25;15.60;99.90
22986;DHT22;11659;51.092;7.080;2022-10-22T08:22:51;15.70;99.90
22986;DHT22;11659;51.092;7.080;2022-10-22T08:25:17;15.70;99.90
22986;DHT22;11659;51.092;7.080;2022-10-22T08:27:43;15.70;99.90
22986;DHT22;11659;51.092;7.080;2022-10-22T08:30:10;15.70;99.90
22986;DHT22;11659;51.092;7.080;2022-10-22T08:32:38;15.70;99.90
22986;DHT22;11659;51.092;7.080;2022-10-22T08:35:04;15.80;99.90
22986;DHT22;11659;51.092;7.080;2022-10-22T08:37:30;15.70;99.90
22986;DHT22;11659;51.092;7.080;2022-10-22T08:39:56;15.70;99.90
22986;DHT22;11659;51.092;7.080;2022-10-22T08:42:49;15.70;99.90
22986;DHT22;11659;51.092;7.080;2022-10-22T08:45:23;15.70;99.90
22986;DHT22;11659;51.092;7.080;2022-10-22T08:48:04;15.70;99.90
22986;DHT22;11659;51.092;7.080;2022-10-22T08:50:34;15.70;99.90
22986;DHT22;11659;51.092;7.080;2022-10-22T08:53:03;15.60;99.90
22986;DHT22;11659;51.092;7.080;2022-10-22T08:55:33;15.60;99.90
22986;DHT22;11659;51.092;7.080;2022-10-22T08:58:04;15.60;99.90
22986;DHT22;11659;51.092;7.080;2022-10-22T09:00:36;15.60;99.90
22986;DHT22;11659;51.092;7.080;2022-10-22T09:03:23;15.60;99.90
22986;DHT22;11659;51.092;7.080;2022-10-22T09:05:57;15.60;99.90
22986;DHT22;11659;51.092;7.080;2022-10-22T09:08:25;15.50;99.90
22986;DHT22;11659;51.092;7.080;2022-10-22T09:10:54;15.60;99.90
22986;DHT22;11659;51.092;7.080;2022-10-22T09:13:22;15.60;99.90
22986;DHT22;11659;51.092;7.080;2022-10-22T09:15:52;15.50;99.90
22986;DHT22;11659;51.092;7.080;2022-10-22T09:18:32;15.60;99.90
22986;DHT22;11659;51.092;7.080;2022-10-22T09:21:05;15.60;99.90
22986;DHT22;11659;51.092;7.080;2022-10-22T09:23:49;15.60;99.90
22986;DHT22;11659;51.092;7.080;2022-10-22T09:26:16;15.60;99.90
22986;DHT22;11659;51.092;7.080;2022-10-22T09:28:43;15.60;99.90
22986;DHT22;11659;51.092;7.080;2022-10-22T09:31:13;15.70;99.90
22986;DHT22;11659;51.092;7.080;2022-10-22T09:33:42;15.70;99.90
22986;DHT22;11659;51.092;7.080;2022-10-22T09:36:12;15.80;99.90
22986;DHT22;11659;51.092;7.080;2022-10-22T09:38:44;15.80;99.90
22986;DHT22;11659;51.092;7.080;2022-10-22T09:41:11;15.80;99.90
22986;DHT22;11659;51.092;7.080;2022-10-22T09:43:37;15.80;99.90
22986;DHT22;11659;51.092;7.080;2022-10-22T09:46:05;15.90;99.90
22986;DHT22;11659;51.092;7.080;2022-10-22T09:48:34;15.90;99.90
22986;DHT22;11659;51.092;7.080;2022-10-22T09:51:10;15.90;99.90
22986;DHT22;11659;51.092;7.080;2022-10-22T09:53:41;15.90;99.90
22986;DHT22;11659;51.092;7.080;2022-10-22T09:56:12;15.90;99.90
22986;DHT22;11659;51.092;7.080;2022-10-22T09:58:41;15.90;99.90
22986;DHT22;11659;51.092;7.080;2022-10-22T10:01:16;16.00;99.90
22986;DHT22;11659;51.092;7.080;2022-10-22T10:03:42;16.00;99.90
22986;DHT22;11659;51.092;7.080;2022-10-22T10:06:09;16.00;99.90
22986;DHT22;11659;51.092;7.080;2022-10-22T10:08:37;16.00;99.90
22986;DHT22;11659;51.092;7.080;2022-10-22T10:11:07;16.00;99.90
22986;DHT22;11659;51.092;7.080;2022-10-22T10:13:42;16.00;99.90
22986;DHT22;11659;51.092;7.080;2022-10-22T10:16:29;16.00;99.90
22986;DHT22;11659;51.092;7.080;2022-10-22T10:19:15;16.10;99.90
22986;DHT22;11659;51.092;7.080;2022-10-22T10:21:50;16.10;99.90
22986;DHT22;11659;51.092;7.080;2022-10-22T10:24:22;16.10;99.90
22986;DHT22;11659;51.092;7.080;2022-10-22T10:27:00;16.10;99.90
22986;DHT22;11659;51.092;7.080;2022-10-22T10:29:37;16.10;99.90
22986;DHT22;11659;51.092;7.080;2022-10-22T10:32:19;16.10;99.90
22986;DHT22;11659;51.092;7.080;2022-10-22T10:34:56;16.10;99.90
22986;DHT22;11659;51.092;7.080;2022-10-22T10:37:29;16.10;99.90
22986;DHT22;11659;51.092;7.080;2022-10-22T10:40:11;16.10;99.90
22986;DHT22;11659;51.092;7.080;2022-10-22T10:43:09;16.10;99.90
22986;DHT22;11659;51.092;7.080;2022-10-22T10:45:43;16.10;99.90
22986;DHT22;11659;51.092;7.080;2022-10-22T10:48:19;16.10;99.90
22986;DHT22;11659;51.092;7.080;2022-10-22T10:50:53;16.10;99.90
22986;DHT22;11659;51.092;7.080;2022-10-22T10:53:28;15.90;99.90
22986;DHT22;11659;51.092;7.080;2022-10-22T10:56:02;16.10;99.90
22986;DHT22;11659;51.092;7.080;2022-10-22T10:58:39;16.10;99.90
22986;DHT22;11659;51.092;7.080;2022-10-22T11:01:14;16.10;99.90
22986;DHT22;11659;51.092;7.080;2022-10-22T11:04:29;16.10;99.90
22986;DHT22;11659;51.092;7.080;2022-10-22T11:07:04;16.10;99.90
22986;DHT22;11659;51.092;7.080;2022-10-22T11:09:36;16.10;99.90
22986;DHT22;11659;51.092;7.080;2022-10-22T11:12:08;16.10;99.90
22986;DHT22;11659;51.092;7.080;2022-10-22T11:14:40;16.10;99.90
22986;DHT22;11659;51.092;7.080;2022-10-22T11:17:13;16.10;99.90
22986;DHT22;11659;51.092;7.080;2022-10-22T11:19:44;16.10;99.90
22986;DHT22;11659;51.092;7.080;2022-10-22T11:22:17;16.20;99.90
22986;DHT22;11659;51.092;7.080;2022-10-22T11:24:50;16.20;99.90
22986;DHT22;11659;51.092;7.080;2022-10-22T11:27:24;16.20;99.90
22986;DHT22;11659;51.092;7.080;2022-10-22T11:29:54;16.20;99.90
22986;DHT22;11659;51.092;7.080;2022-10-22T11:32:22;16.20;99.90
22986;DHT22;11659;51.092;7.080;2022-10-22T11:34:55;16.20;99.90
22986;DHT22;11659;51.092;7.080;2022-10-22T11:37:24;16.20;99.90
22986;DHT22;11659;51.092;7.080;2022-10-22T11:39:56;16.20;99.90
22986;DHT22;11659;51.092;7.080;2022-10-22T11:42:31;16.20;99.90
22986;DHT22;11659;51.092;7.080;2022-10-22T11:45:00;16.20;99.90
22986;DHT22;11659;51.092;7.080;2022-10-22T11:47:30;16.20;99.90
22986;DHT22;11659;51.092;7.080;2022-10-22T11:50:09;16.20;99.90
22986;DHT22;11659;51.092;7.080;2022-10-22T11:52:53;16.20;99.90
22986;DHT22;11659;51.092;7.080;2022-10-22T11:55:41;16.20;99.90
22986;DHT22;11659;51.092;7.080;2022-10-22T11:58:38;16.20;99.90
22986;DHT22;11659;51.092;7.080;2022-10-22T12:01:21;16.20;99.90
22986;DHT22;11659;51.092;7.080;2022-10-22T12:03:49;16.20;99.90
22986;DHT22;11659;51.092;7.080;2022-10-22T12:06:19;16.20;99.90
22986;DHT22;11659;51.092;7.080;2022-10-22T12:08:51;16.30;99.90
22986;DHT22;11659;51.092;7.080;2022-10-22T12:11:22;16.30;99.90
22986;DHT22;11659;51.092;7.080;2022-10-22T12:13:57;16.30;99.90
22986;DHT22;11659;51.092;7.080;2022-10-22T12:16:28;16.30;99.90
22986;DHT22;11659;51.092;7.080;2022-10-22T12:19:03;16.30;99.90
22986;DHT22;11659;51.092;7.080;2022-10-22T12:21:32;16.30;99.90
22986;DHT22;11659;51.092;7.080;2022-10-22T12:23:58;16.30;99.90
22986;DHT22;11659;51.092;7.080;2022-10-22T12:26:29;16.30;99.90
22986;DHT22;11659;51.092;7.080;2022-10-22T12:28:59;16.40;99.90
22986;DHT22;11659;51.092;7.080;2022-10-22T12:31:25;16.40;99.90
22986;DHT22;11659;51.092;7.080;2022-10-22T12:33:55;16.40;99.90
22986;DHT22;11659;51.092;7.080;2022-10-22T12:36:21;16.50;99.90
22986;DHT22;11659;51.092;7.080;2022-10-22T12:38:47;16.50;99.90
22986;DHT22;11659;51.092;7.080;2022-10-22T12:41:13;16.50;99.90
22986;DHT22;11659;51.092;7.080;2022-10-22T12:43:41;16.50;99.90
22986;DHT22;11659;51.092;7.080;2022-10-22T12:46:10;16.60;99.90
22986;DHT22;11659;51.092;7.080;2022-10-22T12:48:40;16.60;99.90
22986;DHT22;11659;51.092;7.080;2022-10-22T12:51:10;16.70;99.90
22986;DHT22;11659;51.092;7.080;2022-10-22T12:53:43;16.70;99.90
22986;DHT22;11659;51.092;7.080;2022-10-22T12:56:12;16.80;99.90
22986;DHT22;11659;51.092;7.080;2022-10-22T12:58:44;16.80;99.90
22986;DHT22;11659;51.092;7.080;2022-10-22T13:01:11;16.90;99.90
22986;DHT22;11659;51.092;7.080;2022-10-22T13:03:42;17.00;99.90
22986;DHT22;11659;51.092;7.080;2022-10-22T13:06:24;17.10;99.90
22986;DHT22;11659;51.092;7.080;2022-10-22T13:09:04;17.20;99.90
22986;DHT22;11659;51.092;7.080;2022-10-22T13:11:32;17.40;99.90
22986;DHT22;11659;51.092;7.080;2022-10-22T13:14:04;17.60;99.90
22986;DHT22;11659;51.092;7.080;2022-10-22T13:16:31;17.80;99.90
22986;DHT22;11659;51.092;7.080;2022-10-22T13:18:57;17.90;99.90
22986;DHT22;11659;51.092;7.080;2022-10-22T13:21:27;18.10;99.90
22986;DHT22;11659;51.092;7.080;2022-10-22T13:23:55;18.20;99.90
22986;DHT22;11659;51.092;7.080;2022-10-22T13:26:21;18.30;99.90
22986;DHT22;11659;51.092;7.080;2022-10-22T13:28:50;18.40;99.90
22986;DHT22;11659;51.092;7.080;2022-10-22T13:31:20;18.40;99.90
22986;DHT22;11659;51.092;7.080;2022-10-22T13:33:51;18.40;99.90
22986;DHT22;11659;51.092;7.080;2022-10-22T13:36:18;18.50;99.90
22986;DHT22;11659;51.092;7.080;2022-10-22T13:38:44;18.50;99.90
22986;DHT22;11659;51.092;7.080;2022-10-22T13:41:23;18.40;99.90
22986;DHT22;11659;51.092;7.080;2022-10-22T13:43:49;18.40;99.90
22986;DHT22;11659;51.092;7.080;2022-10-22T13:46:16;18.40;99.90
22986;DHT22;11659;51.092;7.080;2022-10-22T13:49:01;18.40;99.90
22986;DHT22;11659;51.092;7.080;2022-10-22T13:51:30;18.40;99.90
22986;DHT22;11659;51.092;7.080;2022-10-22T13:53:57;18.30;99.90
22986;DHT22;11659;51.092;7.080;2022-10-22T13:56:23;18.30;99.90
22986;DHT22;11659;51.092;7.080;2022-10-22T13:58:49;18.20;99.90
22986;DHT22;11659;51.092;7.080;2022-10-22T14:01:19;18.20;99.90
22986;DHT22;11659;51.092;7.080;2022-10-22T14:03:46;18.20;99.90
22986;DHT22;11659;51.092;7.080;2022-10-22T14:06:15;18.20;99.90
22986;DHT22;11659;51.092;7.080;2022-10-22T14:08:44;18.20;99.90
22986;DHT22;11659;51.092;7.080;2022-10-22T14:11:11;18.10;99.90
22986;DHT22;11659;51.092;7.080;2022-10-22T14:13:37;18.10;99.90
22986;DHT22;11659;51.092;7.080;2022-10-22T14:16:04;18.10;99.90
22986;DHT22;11659;51.092;7.080;2022-10-22T14:18:31;18.00;99.90
22986;DHT22;11659;51.092;7.080;2022-10-22T14:20:59;18.00;99.90
22986;DHT22;11659;51.092;7.080;2022-10-22T14:23:29;17.90;99.90
22986;DHT22;11659;51.092;7.080;2022-10-22T14:25:56;18.00;99.90
22986;DHT22;11659;51.092;7.080;2022-10-22T14:28:23;18.00;99.90
22986;DHT22;11659;51.092;7.080;2022-10-22T14:30:50;18.10;99.90
22986;DHT22;11659;51.092;7.080;2022-10-22T14:33:18;18.20;99.90
22986;DHT22;11659;51.092;7.080;2022-10-22T14:35:47;18.30;99.90
22986;DHT22;11659;51.092;7.080;2022-10-22T14:38:14;18.30;99.90
22986;DHT22;11659;51.092;7.080;2022-10-22T14:40:41;18.30;99.90
22986;DHT22;11659;51.092;7.080;2022-10-22T14:43:09;18.20;99.90
22986;DHT22;11659;51.092;7.080;2022-10-22T14:45:35;18.10;99.90
22986;DHT22;11659;51.092;7.080;2022-10-22T14:48:01;18.00;99.90
22986;DHT22;11659;51.092;7.080;2022-10-22T14:50:27;18.00;99.90
22986;DHT22;11659;51.092;7.080;2022-10-22T14:52:53;17.90;99.90
22986;DHT22;11659;51.092;7.080;2022-10-22T14:55:21;17.90;99.90
22986;DHT22;11659;51.092;7.080;2022-10-22T14:57:49;17.80;99.90
22986;DHT22;11659;51.092;7.080;2022-10-22T15:00:16;17.80;99.90
22986;DHT22;11659;51.092;7.080;2022-10-22T15:02:43;17.70;99.90
22986;DHT22;11659;51.092;7.080;2022-10-22T15:05:09;17.70;99.90
22986;DHT22;11659;51.092;7.080;2022-10-22T15:07:35;17.70;99.90
22986;DHT22;11659;51.092;7.080;2022-10-22T15:10:02;17.60;99.90
22986;DHT22;11659;51.092;7.080;2022-10-22T15:12:28;17.60;99.90
22986;DHT22;11659;51.092;7.080;2022-10-22T15:14:55;17.60;99.90
22986;DHT22;11659;51.092;7.080;2022-10-22T15:17:21;17.60;99.90
22986;DHT22;11659;51.092;7.080;2022-10-22T15:19:47;17.50;99.90
22986;DHT22;11659;51.092;7.080;2022-10-22T15:22:13;17.50;99.90
22986;DHT22;11659;51.092;7.080;2022-10-22T15:24:40;17.50;99.90
22986;DHT22;11659;51.092;7.080;2022-10-22T15:27:09;17.50;99.90
22986;DHT22;11659;51.092;7.080;2022-10-22T15:29:38;17.40;99.90
22986;DHT22;11659;51.092;7.080;2022-10-22T15:32:06;17.40;99.90
22986;DHT22;11659;51.092;7.080;2022-10-22T15:34:33;17.40;99.90
22986;DHT22;11659;51.092;7.080;2022-10-22T15:37:01;17.40;99.90
22986;DHT22;11659;51.092;7.080;2022-10-22T15:39:27;17.40;99.90
22986;DHT22;11659;51.092;7.080;2022-10-22T15:41:54;17.40;99.90
22986;DHT22;11659;51.092;7.080;2022-10-22T15:44:22;17.30;99.90